Sunday, January 21, 2018, 8:41 PM GMT
Back to Local

CWQV, Puinte Claveau

Location: , , Canada Lat: 48.267
Local Time: 8:41 PM GMT (20:41 GMT) Lon: -70.117
Time Zone: GMT Elev: 0 ft

Show me the last for .
Show Coded

Time T Td Feel RH Dir Speed Gust Alt SLP Vis Weather Sky Remarks
2018-01-21 20:00 12 -3 -10 50 280° 25 32 - - 0 Peak wind: 33 mph (29 kts) from 280° at 32 min
2018-01-21 19:00 12 -1 -10 55 280° 23 30 - - 0 Peak wind: 29 mph (26 kts) from 280° at 54 min
2018-01-21 18:00 11 0 -10 58 280° 21 30 - - 0 Peak wind: 32 mph (28 kts) from 280° at 33 min
2018-01-21 17:00 11 0 -11 61 280° 23 29 - - 0 Peak wind: 29 mph (26 kts) from 280° at 44 min
2018-01-21 16:00 10 0 -10 63 280° 22 - - - 0 Peak wind: 29 mph (26 kts) from 280° at 21 min
2018-01-21 15:00 10 1 -12 65 280° 22 29 - - 0 Peak wind: 28 mph (25 kts) from 290° at 27 min
2018-01-21 14:00 10 1 -12 65 280° 21 26 - - 0 Peak wind: 28 mph (25 kts) from 280° at 22 min
2018-01-21 13:00 10 2 -11 70 280° 17 24 - - 0 Peak wind: 24 mph (21 kts) from 280° at 58 min
2018-01-21 12:00 10 3 -8 73 280° 18 - - - 0 Peak wind: 26 mph (23 kts) from 280° at 26 min
2018-01-21 11:00 11 3 -10 71 280° 17 24 - - 0 Peak wind: 26 mph (23 kts) from 280° at 01 min
2018-01-21 10:00 11 4 -7 71 280° 18 - - - 0 Peak wind: 26 mph (23 kts) from 280° at 14 min
2018-01-21 09:00 12 4 -5 70 280° 17 - - - 0 Peak wind: 24 mph (21 kts) from 270° at 06 min
2018-01-21 08:00 13 5 -7 69 280° 20 26 - - 0 Peak wind: 28 mph (25 kts) from 290° at 41 min
2018-01-21 07:00 14 6 -7 69 280° 20 28 - - 0 Peak wind: 28 mph (25 kts) from 280° at 07 min
2018-01-21 06:00 14 6 -6 69 280° 22 29 - - 0 Peak wind: 33 mph (29 kts) from 280° at 11 min
2018-01-21 05:00 15 7 -7 70 280° 25 33 - - 0 Peak wind: 37 mph (33 kts) from 280° at 19 min
2018-01-21 04:00 16 7 -6 66 280° 26 36 - - 0 Peak wind: 40 mph (35 kts) from 280° at 41 min
2018-01-21 03:00 17 8 -6 69 280° 31 41 - - 0 Peak wind: 47 mph (41 kts) from 280° at 12 min
2018-01-21 02:00 18 8 -4 65 280° 33 41 - - 0 Peak wind: 44 mph (39 kts) from 280° at 01 min
2018-01-21 01:00 19 11 -3 69 280° 33 43 - - 0 Peak wind: 48 mph (42 kts) from 280° at 10 min
2018-01-21 00:00 20 11 -3 69 280° 37 49 - - 0 Peak wind: 49 mph (43 kts) from 280° at 59 min
2018-01-20 23:00 21 12 0 68 280° 33 46 - - 0 Peak wind: 55 mph (48 kts) from 280° at 10 min
2018-01-20 22:00 24 17 3 71 280° 44 52 - - 0 Peak wind: 54 mph (47 kts) from 280° at 30 min
2018-01-20 21:00 29 21 9 71 280° 38 58 - - 0 Peak wind: 57 mph (50 kts) from 280° at 55 min

Support USWX by starting your Amazon purchase here.